sensor_id;sensor_type;location;lat;lon;timestamp;temperature;humidity
81315;DHT22;70781;52.510;5.718;2023-08-12T00:01:32;21.10;74.30
81315;DHT22;70781;52.510;5.718;2023-08-12T00:04:01;21.10;74.20
81315;DHT22;70781;52.510;5.718;2023-08-12T00:06:30;21.10;74.30
81315;DHT22;70781;52.510;5.718;2023-08-12T00:08:59;21.00;74.40
81315;DHT22;70781;52.510;5.718;2023-08-12T00:11:32;21.00;74.40
81315;DHT22;70781;52.510;5.718;2023-08-12T00:14:01;21.00;74.50
81315;DHT22;70781;52.510;5.718;2023-08-12T00:16:31;21.00;74.50
81315;DHT22;70781;52.510;5.718;2023-08-12T00:19:00;21.00;74.60
81315;DHT22;70781;52.510;5.718;2023-08-12T00:21:29;21.00;74.50
81315;DHT22;70781;52.510;5.718;2023-08-12T00:23:58;21.00;74.70
81315;DHT22;70781;52.510;5.718;2023-08-12T00:26:28;20.90;74.60
81315;DHT22;70781;52.510;5.718;2023-08-12T00:28:59;20.90;74.70
81315;DHT22;70781;52.510;5.718;2023-08-12T00:31:29;20.90;74.80
81315;DHT22;70781;52.510;5.718;2023-08-12T00:33:58;20.90;74.80
81315;DHT22;70781;52.510;5.718;2023-08-12T00:36:27;20.80;74.80
81315;DHT22;70781;52.510;5.718;2023-08-12T00:38:56;20.80;75.00
81315;DHT22;70781;52.510;5.718;2023-08-12T00:41:25;20.80;75.00
81315;DHT22;70781;52.510;5.718;2023-08-12T00:43:55;20.80;75.00
81315;DHT22;70781;52.510;5.718;2023-08-12T00:46:27;20.80;75.00
81315;DHT22;70781;52.510;5.718;2023-08-12T00:48:57;20.80;75.10
81315;DHT22;70781;52.510;5.718;2023-08-12T00:51:26;20.70;75.10
81315;DHT22;70781;52.510;5.718;2023-08-12T00:53:57;20.70;75.20
81315;DHT22;70781;52.510;5.718;2023-08-12T00:56:26;20.70;75.20
81315;DHT22;70781;52.510;5.718;2023-08-12T00:58:58;20.70;75.20
81315;DHT22;70781;52.510;5.718;2023-08-12T01:01:31;20.70;75.20
81315;DHT22;70781;52.510;5.718;2023-08-12T01:04:00;20.70;75.30
81315;DHT22;70781;52.510;5.718;2023-08-12T01:06:29;20.60;75.30
81315;DHT22;70781;52.510;5.718;2023-08-12T01:08:59;20.60;75.30
81315;DHT22;70781;52.510;5.718;2023-08-12T01:11:36;20.60;75.40
81315;DHT22;70781;52.510;5.718;2023-08-12T01:14:08;20.60;75.40
81315;DHT22;70781;52.510;5.718;2023-08-12T01:16:47;20.60;75.40
81315;DHT22;70781;52.510;5.718;2023-08-12T01:19:27;20.60;75.50
81315;DHT22;70781;52.510;5.718;2023-08-12T01:22:00;20.60;75.50
81315;DHT22;70781;52.510;5.718;2023-08-12T01:24:37;20.50;75.60
81315;DHT22;70781;52.510;5.718;2023-08-12T01:27:07;20.50;75.60
81315;DHT22;70781;52.510;5.718;2023-08-12T01:29:39;20.50;75.60
81315;DHT22;70781;52.510;5.718;2023-08-12T01:32:14;20.50;75.70
81315;DHT22;70781;52.510;5.718;2023-08-12T01:34:50;20.50;75.80
81315;DHT22;70781;52.510;5.718;2023-08-12T01:37:25;20.50;75.70
81315;DHT22;70781;52.510;5.718;2023-08-12T01:40:00;20.50;75.80
81315;DHT22;70781;52.510;5.718;2023-08-12T01:42:31;20.50;75.90
81315;DHT22;70781;52.510;5.718;2023-08-12T01:45:01;20.50;75.90
81315;DHT22;70781;52.510;5.718;2023-08-12T01:47:30;20.50;75.90
81315;DHT22;70781;52.510;5.718;2023-08-12T01:49:59;20.50;76.00
81315;DHT22;70781;52.510;5.718;2023-08-12T01:52:29;20.50;76.00
81315;DHT22;70781;52.510;5.718;2023-08-12T01:55:00;20.50;76.00
81315;DHT22;70781;52.510;5.718;2023-08-12T01:57:30;20.50;76.10
81315;DHT22;70781;52.510;5.718;2023-08-12T02:00:00;20.50;76.10
81315;DHT22;70781;52.510;5.718;2023-08-12T02:02:43;20.60;76.10
81315;DHT22;70781;52.510;5.718;2023-08-12T02:05:13;20.50;76.10
81315;DHT22;70781;52.510;5.718;2023-08-12T02:07:42;20.60;76.20
81315;DHT22;70781;52.510;5.718;2023-08-12T02:10:14;20.60;76.10
81315;DHT22;70781;52.510;5.718;2023-08-12T02:12:44;20.60;76.20
81315;DHT22;70781;52.510;5.718;2023-08-12T02:15:13;20.60;76.20
81315;DHT22;70781;52.510;5.718;2023-08-12T02:17:43;20.60;76.20
81315;DHT22;70781;52.510;5.718;2023-08-12T02:20:13;20.60;76.30
81315;DHT22;70781;52.510;5.718;2023-08-12T02:22:42;20.50;76.20
81315;DHT22;70781;52.510;5.718;2023-08-12T02:25:14;20.60;76.30
81315;DHT22;70781;52.510;5.718;2023-08-12T02:27:44;20.60;76.30
81315;DHT22;70781;52.510;5.718;2023-08-12T02:30:13;20.60;76.30
81315;DHT22;70781;52.510;5.718;2023-08-12T02:32:42;20.60;76.40
81315;DHT22;70781;52.510;5.718;2023-08-12T02:35:12;20.60;76.40
81315;DHT22;70781;52.510;5.718;2023-08-12T02:37:41;20.60;76.50
81315;DHT22;70781;52.510;5.718;2023-08-12T02:40:14;20.50;76.50
81315;DHT22;70781;52.510;5.718;2023-08-12T02:42:43;20.50;76.50
81315;DHT22;70781;52.510;5.718;2023-08-12T02:45:12;20.50;76.50
81315;DHT22;70781;52.510;5.718;2023-08-12T02:47:41;20.50;76.60
81315;DHT22;70781;52.510;5.718;2023-08-12T02:50:10;20.50;76.60
81315;DHT22;70781;52.510;5.718;2023-08-12T02:52:40;20.50;76.60
81315;DHT22;70781;52.510;5.718;2023-08-12T02:55:09;20.50;76.60
81315;DHT22;70781;52.510;5.718;2023-08-12T02:57:41;20.50;76.70
81315;DHT22;70781;52.510;5.718;2023-08-12T03:00:12;20.50;76.70
81315;DHT22;70781;52.510;5.718;2023-08-12T03:02:42;20.50;76.70
81315;DHT22;70781;52.510;5.718;2023-08-12T03:05:12;20.50;76.80
81315;DHT22;70781;52.510;5.718;2023-08-12T03:07:41;20.50;76.80
81315;DHT22;70781;52.510;5.718;2023-08-12T03:10:11;20.50;76.80
81315;DHT22;70781;52.510;5.718;2023-08-12T03:12:42;20.50;76.90
81315;DHT22;70781;52.510;5.718;2023-08-12T03:15:12;20.50;76.90
81315;DHT22;70781;52.510;5.718;2023-08-12T03:17:41;20.50;76.90
81315;DHT22;70781;52.510;5.718;2023-08-12T03:20:11;20.50;76.90
81315;DHT22;70781;52.510;5.718;2023-08-12T03:22:41;20.50;77.00
81315;DHT22;70781;52.510;5.718;2023-08-12T03:25:10;20.50;77.00
81315;DHT22;70781;52.510;5.718;2023-08-12T03:27:44;20.50;77.10
81315;DHT22;70781;52.510;5.718;2023-08-12T03:30:14;20.50;77.10
81315;DHT22;70781;52.510;5.718;2023-08-12T03:32:44;20.50;77.10
81315;DHT22;70781;52.510;5.718;2023-08-12T03:35:15;20.50;77.20
81315;DHT22;70781;52.510;5.718;2023-08-12T03:37:44;20.50;77.20
81315;DHT22;70781;52.510;5.718;2023-08-12T03:40:14;20.50;77.20
81315;DHT22;70781;52.510;5.718;2023-08-12T03:42:46;20.50;77.20
81315;DHT22;70781;52.510;5.718;2023-08-12T03:45:17;20.50;77.30
81315;DHT22;70781;52.510;5.718;2023-08-12T03:47:47;20.50;77.30
81315;DHT22;70781;52.510;5.718;2023-08-12T03:50:17;20.50;77.30
81315;DHT22;70781;52.510;5.718;2023-08-12T03:52:46;20.50;77.30
81315;DHT22;70781;52.510;5.718;2023-08-12T03:55:15;20.50;77.40
81315;DHT22;70781;52.510;5.718;2023-08-12T03:57:48;20.50;77.40
81315;DHT22;70781;52.510;5.718;2023-08-12T04:00:18;20.50;77.50
81315;DHT22;70781;52.510;5.718;2023-08-12T04:02:47;20.50;77.50
81315;DHT22;70781;52.510;5.718;2023-08-12T04:05:16;20.50;77.50
81315;DHT22;70781;52.510;5.718;2023-08-12T04:07:45;20.40;77.60
81315;DHT22;70781;52.510;5.718;2023-08-12T04:10:15;20.40;77.60
81315;DHT22;70781;52.510;5.718;2023-08-12T04:12:47;20.40;77.60
81315;DHT22;70781;52.510;5.718;2023-08-12T04:15:17;20.40;77.70
81315;DHT22;70781;52.510;5.718;2023-08-12T04:17:47;20.40;77.70
81315;DHT22;70781;52.510;5.718;2023-08-12T04:20:16;20.40;77.70
81315;DHT22;70781;52.510;5.718;2023-08-12T04:22:45;20.40;77.80
81315;DHT22;70781;52.510;5.718;2023-08-12T04:25:15;20.40;77.90
81315;DHT22;70781;52.510;5.718;2023-08-12T04:27:47;20.50;77.90
81315;DHT22;70781;52.510;5.718;2023-08-12T04:30:18;20.50;77.90
81315;DHT22;70781;52.510;5.718;2023-08-12T04:32:48;20.50;78.00
81315;DHT22;70781;52.510;5.718;2023-08-12T04:35:17;20.50;78.00
81315;DHT22;70781;52.510;5.718;2023-08-12T04:37:46;20.50;78.10
81315;DHT22;70781;52.510;5.718;2023-08-12T04:40:13;20.50;78.10
81315;DHT22;70781;52.510;5.718;2023-08-12T04:42:42;20.50;78.10
81315;DHT22;70781;52.510;5.718;2023-08-12T04:45:18;20.50;78.10
81315;DHT22;70781;52.510;5.718;2023-08-12T04:47:48;20.50;78.20
81315;DHT22;70781;52.510;5.718;2023-08-12T04:50:19;20.50;78.20
81315;DHT22;70781;52.510;5.718;2023-08-12T04:52:48;20.50;78.30
81315;DHT22;70781;52.510;5.718;2023-08-12T04:55:19;20.50;78.30
81315;DHT22;70781;52.510;5.718;2023-08-12T04:57:48;20.50;78.40
81315;DHT22;70781;52.510;5.718;2023-08-12T05:00:20;20.60;78.50
81315;DHT22;70781;52.510;5.718;2023-08-12T05:02:49;20.50;78.50
81315;DHT22;70781;52.510;5.718;2023-08-12T05:05:19;20.60;78.60
81315;DHT22;70781;52.510;5.718;2023-08-12T05:07:48;20.60;78.60
81315;DHT22;70781;52.510;5.718;2023-08-12T05:10:19;20.60;78.70
81315;DHT22;70781;52.510;5.718;2023-08-12T05:12:48;20.60;78.70
81315;DHT22;70781;52.510;5.718;2023-08-12T05:15:23;20.60;78.80
81315;DHT22;70781;52.510;5.718;2023-08-12T05:17:52;20.70;78.80
81315;DHT22;70781;52.510;5.718;2023-08-12T05:20:23;20.70;78.80
81315;DHT22;70781;52.510;5.718;2023-08-12T05:22:52;20.70;78.90
81315;DHT22;70781;52.510;5.718;2023-08-12T05:25:21;20.70;78.90
81315;DHT22;70781;52.510;5.718;2023-08-12T05:27:50;20.70;79.00
81315;DHT22;70781;52.510;5.718;2023-08-12T05:30:22;20.70;79.00
81315;DHT22;70781;52.510;5.718;2023-08-12T05:32:51;20.70;79.10
81315;DHT22;70781;52.510;5.718;2023-08-12T05:35:21;20.80;79.10
81315;DHT22;70781;52.510;5.718;2023-08-12T05:37:50;20.80;79.10
81315;DHT22;70781;52.510;5.718;2023-08-12T05:40:19;20.80;79.10
81315;DHT22;70781;52.510;5.718;2023-08-12T05:42:48;20.80;79.20
81315;DHT22;70781;52.510;5.718;2023-08-12T05:45:17;20.80;79.20
81315;DHT22;70781;52.510;5.718;2023-08-12T05:47:49;20.80;79.30
81315;DHT22;70781;52.510;5.718;2023-08-12T05:50:18;20.90;79.30
81315;DHT22;70781;52.510;5.718;2023-08-12T05:52:48;20.90;79.30
81315;DHT22;70781;52.510;5.718;2023-08-12T05:55:17;20.90;79.40
81315;DHT22;70781;52.510;5.718;2023-08-12T05:57:46;20.90;79.40
81315;DHT22;70781;52.510;5.718;2023-08-12T06:00:15;20.90;79.40
81315;DHT22;70781;52.510;5.718;2023-08-12T06:02:45;20.90;79.50
81315;DHT22;70781;52.510;5.718;2023-08-12T06:05:17;20.90;79.50
81315;DHT22;70781;52.510;5.718;2023-08-12T06:07:46;20.90;79.50
81315;DHT22;70781;52.510;5.718;2023-08-12T06:10:15;20.90;79.60
81315;DHT22;70781;52.510;5.718;2023-08-12T06:12:44;20.90;79.50
81315;DHT22;70781;52.510;5.718;2023-08-12T06:15:13;20.90;79.50
81315;DHT22;70781;52.510;5.718;2023-08-12T06:17:42;21.00;79.60
81315;DHT22;70781;52.510;5.718;2023-08-12T06:20:12;20.90;79.60
81315;DHT22;70781;52.510;5.718;2023-08-12T06:22:44;20.90;79.60
81315;DHT22;70781;52.510;5.718;2023-08-12T06:25:13;21.00;79.70
81315;DHT22;70781;52.510;5.718;2023-08-12T06:27:43;21.00;79.70
81315;DHT22;70781;52.510;5.718;2023-08-12T06:30:12;21.00;79.70
81315;DHT22;70781;52.510;5.718;2023-08-12T06:32:42;21.00;79.70
81315;DHT22;70781;52.510;5.718;2023-08-12T06:35:11;21.00;79.80
81315;DHT22;70781;52.510;5.718;2023-08-12T06:37:40;21.00;79.80
81315;DHT22;70781;52.510;5.718;2023-08-12T06:40:12;21.00;79.80
81315;DHT22;70781;52.510;5.718;2023-08-12T06:42:41;21.00;79.80
81315;DHT22;70781;52.510;5.718;2023-08-12T06:45:11;21.00;79.90
81315;DHT22;70781;52.510;5.718;2023-08-12T06:47:40;21.00;79.90
81315;DHT22;70781;52.510;5.718;2023-08-12T06:50:10;21.00;79.90
81315;DHT22;70781;52.510;5.718;2023-08-12T06:52:39;21.00;80.00
81315;DHT22;70781;52.510;5.718;2023-08-12T06:55:08;21.00;80.00
81315;DHT22;70781;52.510;5.718;2023-08-12T06:57:40;21.00;80.00
81315;DHT22;70781;52.510;5.718;2023-08-12T07:00:10;21.00;80.00
81315;DHT22;70781;52.510;5.718;2023-08-12T07:02:39;21.00;80.00
81315;DHT22;70781;52.510;5.718;2023-08-12T07:05:09;20.90;80.00
81315;DHT22;70781;52.510;5.718;2023-08-12T07:07:38;21.00;80.10
81315;DHT22;70781;52.510;5.718;2023-08-12T07:10:08;20.90;80.10
81315;DHT22;70781;52.510;5.718;2023-08-12T07:12:39;20.90;80.10
81315;DHT22;70781;52.510;5.718;2023-08-12T07:15:09;21.00;80.10
81315;DHT22;70781;52.510;5.718;2023-08-12T07:17:39;20.90;80.20
81315;DHT22;70781;52.510;5.718;2023-08-12T07:20:09;20.90;80.20
81315;DHT22;70781;52.510;5.718;2023-08-12T07:22:38;20.90;80.30
81315;DHT22;70781;52.510;5.718;2023-08-12T07:25:08;20.90;80.30
81315;DHT22;70781;52.510;5.718;2023-08-12T07:27:40;20.90;80.40
81315;DHT22;70781;52.510;5.718;2023-08-12T07:30:11;20.90;80.40
81315;DHT22;70781;52.510;5.718;2023-08-12T07:32:40;20.80;80.40
81315;DHT22;70781;52.510;5.718;2023-08-12T07:35:09;20.80;80.50
81315;DHT22;70781;52.510;5.718;2023-08-12T07:37:38;20.80;80.50
81315;DHT22;70781;52.510;5.718;2023-08-12T07:40:09;20.80;80.60
81315;DHT22;70781;52.510;5.718;2023-08-12T07:42:41;20.70;80.60
81315;DHT22;70781;52.510;5.718;2023-08-12T07:45:10;20.70;80.70
81315;DHT22;70781;52.510;5.718;2023-08-12T07:47:40;20.60;80.70
81315;DHT22;70781;52.510;5.718;2023-08-12T07:50:09;20.60;80.80
81315;DHT22;70781;52.510;5.718;2023-08-12T07:52:38;20.60;80.80
81315;DHT22;70781;52.510;5.718;2023-08-12T07:55:08;20.60;80.80
81315;DHT22;70781;52.510;5.718;2023-08-12T07:57:41;20.60;80.80
81315;DHT22;70781;52.510;5.718;2023-08-12T08:00:11;20.50;80.80
81315;DHT22;70781;52.510;5.718;2023-08-12T08:02:41;20.50;80.80
81315;DHT22;70781;52.510;5.718;2023-08-12T08:05:10;20.50;80.90
81315;DHT22;70781;52.510;5.718;2023-08-12T08:07:39;20.50;80.80
81315;DHT22;70781;52.510;5.718;2023-08-12T08:10:09;20.50;80.90
81315;DHT22;70781;52.510;5.718;2023-08-12T08:12:41;20.50;80.90
81315;DHT22;70781;52.510;5.718;2023-08-12T08:15:10;20.50;80.90
81315;DHT22;70781;52.510;5.718;2023-08-12T08:17:40;20.50;80.90
81315;DHT22;70781;52.510;5.718;2023-08-12T08:20:09;20.50;80.90
81315;DHT22;70781;52.510;5.718;2023-08-12T08:22:39;20.50;80.90
81315;DHT22;70781;52.510;5.718;2023-08-12T08:25:08;20.60;81.00
81315;DHT22;70781;52.510;5.718;2023-08-12T08:27:37;20.60;80.90
81315;DHT22;70781;52.510;5.718;2023-08-12T08:30:10;20.60;80.90
81315;DHT22;70781;52.510;5.718;2023-08-12T08:32:39;20.50;81.00
81315;DHT22;70781;52.510;5.718;2023-08-12T08:35:09;20.60;80.90
81315;DHT22;70781;52.510;5.718;2023-08-12T08:37:38;20.60;81.00
81315;DHT22;70781;52.510;5.718;2023-08-12T08:40:08;20.60;80.90
81315;DHT22;70781;52.510;5.718;2023-08-12T08:42:38;20.50;80.90
81315;DHT22;70781;52.510;5.718;2023-08-12T08:45:12;20.50;81.00
81315;DHT22;70781;52.510;5.718;2023-08-12T08:47:42;20.60;81.10
81315;DHT22;70781;52.510;5.718;2023-08-12T08:50:11;20.60;80.90
81315;DHT22;70781;52.510;5.718;2023-08-12T08:52:41;20.50;80.90
81315;DHT22;70781;52.510;5.718;2023-08-12T08:55:11;20.50;80.90
81315;DHT22;70781;52.510;5.718;2023-08-12T08:57:43;20.60;80.90
81315;DHT22;70781;52.510;5.718;2023-08-12T09:00:15;20.50;81.00
81315;DHT22;70781;52.510;5.718;2023-08-12T09:02:46;20.50;80.90
81315;DHT22;70781;52.510;5.718;2023-08-12T09:05:16;20.50;81.00
81315;DHT22;70781;52.510;5.718;2023-08-12T09:07:47;20.50;81.10
81315;DHT22;70781;52.510;5.718;2023-08-12T09:10:19;20.50;81.00
81315;DHT22;70781;52.510;5.718;2023-08-12T09:12:49;20.50;81.10
81315;DHT22;70781;52.510;5.718;2023-08-12T09:15:22;20.50;81.10
81315;DHT22;70781;52.510;5.718;2023-08-12T09:17:52;20.50;81.20
81315;DHT22;70781;52.510;5.718;2023-08-12T09:20:21;20.50;81.20
81315;DHT22;70781;52.510;5.718;2023-08-12T09:22:56;20.60;81.20
81315;DHT22;70781;52.510;5.718;2023-08-12T09:25:26;20.60;81.20
81315;DHT22;70781;52.510;5.718;2023-08-12T09:27:59;20.60;81.20
81315;DHT22;70781;52.510;5.718;2023-08-12T09:30:31;20.70;81.20
81315;DHT22;70781;52.510;5.718;2023-08-12T09:33:01;20.70;81.20
81315;DHT22;70781;52.510;5.718;2023-08-12T09:35:34;20.70;81.30
81315;DHT22;70781;52.510;5.718;2023-08-12T09:38:04;20.70;81.20
81315;DHT22;70781;52.510;5.718;2023-08-12T09:40:35;20.70;81.30
81315;DHT22;70781;52.510;5.718;2023-08-12T09:43:04;20.70;81.40
81315;DHT22;70781;52.510;5.718;2023-08-12T09:45:36;20.80;81.30
81315;DHT22;70781;52.510;5.718;2023-08-12T09:48:06;20.70;81.20
81315;DHT22;70781;52.510;5.718;2023-08-12T09:50:36;20.60;81.10
81315;DHT22;70781;52.510;5.718;2023-08-12T09:53:05;20.50;81.20
81315;DHT22;70781;52.510;5.718;2023-08-12T09:55:35;20.30;81.30
81315;DHT22;70781;52.510;5.718;2023-08-12T09:58:07;20.10;81.40
81315;DHT22;70781;52.510;5.718;2023-08-12T10:00:41;20.00;81.30
81315;DHT22;70781;52.510;5.718;2023-08-12T10:03:11;20.00;81.20
81315;DHT22;70781;52.510;5.718;2023-08-12T10:05:43;19.80;81.20
81315;DHT22;70781;52.510;5.718;2023-08-12T10:08:14;19.70;81.20
81315;DHT22;70781;52.510;5.718;2023-08-12T10:10:43;19.60;81.20
81315;DHT22;70781;52.510;5.718;2023-08-12T10:13:13;19.50;81.20
81315;DHT22;70781;52.510;5.718;2023-08-12T10:15:45;19.60;81.20
81315;DHT22;70781;52.510;5.718;2023-08-12T10:18:15;19.70;81.00
81315;DHT22;70781;52.510;5.718;2023-08-12T10:20:44;19.60;80.90
81315;DHT22;70781;52.510;5.718;2023-08-12T10:23:15;19.50;80.80
81315;DHT22;70781;52.510;5.718;2023-08-12T10:25:45;19.50;80.80
81315;DHT22;70781;52.510;5.718;2023-08-12T10:28:14;19.50;80.70
81315;DHT22;70781;52.510;5.718;2023-08-12T10:30:50;19.50;80.70
81315;DHT22;70781;52.510;5.718;2023-08-12T10:33:20;19.50;80.60
81315;DHT22;70781;52.510;5.718;2023-08-12T10:35:50;19.50;80.50
81315;DHT22;70781;52.510;5.718;2023-08-12T10:38:20;19.50;80.60
81315;DHT22;70781;52.510;5.718;2023-08-12T10:40:51;19.50;80.50
81315;DHT22;70781;52.510;5.718;2023-08-12T10:43:21;19.50;80.40
81315;DHT22;70781;52.510;5.718;2023-08-12T10:45:55;19.50;80.30
81315;DHT22;70781;52.510;5.718;2023-08-12T10:48:24;19.60;80.40
81315;DHT22;70781;52.510;5.718;2023-08-12T10:50:56;19.60;80.30
81315;DHT22;70781;52.510;5.718;2023-08-12T10:53:26;19.60;80.30
81315;DHT22;70781;52.510;5.718;2023-08-12T10:56:01;19.70;80.30
81315;DHT22;70781;52.510;5.718;2023-08-12T10:58:34;19.70;80.40
81315;DHT22;70781;52.510;5.718;2023-08-12T11:01:13;19.90;80.40
81315;DHT22;70781;52.510;5.718;2023-08-12T11:03:42;20.00;80.30
81315;DHT22;70781;52.510;5.718;2023-08-12T11:06:12;20.00;80.20
81315;DHT22;70781;52.510;5.718;2023-08-12T11:08:46;20.00;80.20
81315;DHT22;70781;52.510;5.718;2023-08-12T11:11:19;20.10;80.20
81315;DHT22;70781;52.510;5.718;2023-08-12T11:13:53;20.20;80.20
81315;DHT22;70781;52.510;5.718;2023-08-12T11:16:35;20.30;80.10
81315;DHT22;70781;52.510;5.718;2023-08-12T11:19:06;20.30;80.20
81315;DHT22;70781;52.510;5.718;2023-08-12T11:21:36;20.40;80.10
81315;DHT22;70781;52.510;5.718;2023-08-12T11:24:06;20.50;80.00
81315;DHT22;70781;52.510;5.718;2023-08-12T11:26:36;20.50;79.80
81315;DHT22;70781;52.510;5.718;2023-08-12T11:29:09;20.50;79.80
81315;DHT22;70781;52.510;5.718;2023-08-12T11:31:41;20.50;79.80
81315;DHT22;70781;52.510;5.718;2023-08-12T11:34:10;20.60;79.70
81315;DHT22;70781;52.510;5.718;2023-08-12T11:36:40;20.70;79.70
81315;DHT22;70781;52.510;5.718;2023-08-12T11:39:09;20.80;79.50
81315;DHT22;70781;52.510;5.718;2023-08-12T11:41:38;20.90;79.40
81315;DHT22;70781;52.510;5.718;2023-08-12T11:44:11;21.00;79.20
81315;DHT22;70781;52.510;5.718;2023-08-12T11:46:43;21.10;78.90
81315;DHT22;70781;52.510;5.718;2023-08-12T11:49:12;21.10;78.70
81315;DHT22;70781;52.510;5.718;2023-08-12T11:51:42;21.30;78.60
81315;DHT22;70781;52.510;5.718;2023-08-12T11:54:13;21.40;78.50
81315;DHT22;70781;52.510;5.718;2023-08-12T11:56:43;21.50;78.40
81315;DHT22;70781;52.510;5.718;2023-08-12T11:59:13;21.60;78.30
81315;DHT22;70781;52.510;5.718;2023-08-12T12:01:46;21.70;78.10
81315;DHT22;70781;52.510;5.718;2023-08-12T12:04:17;21.70;77.90
81315;DHT22;70781;52.510;5.718;2023-08-12T12:06:47;21.80;77.80
81315;DHT22;70781;52.510;5.718;2023-08-12T12:09:16;21.90;77.60
81315;DHT22;70781;52.510;5.718;2023-08-12T12:11:52;22.00;77.40
81315;DHT22;70781;52.510;5.718;2023-08-12T12:14:21;22.10;77.20
81315;DHT22;70781;52.510;5.718;2023-08-12T12:16:53;22.20;77.20
81315;DHT22;70781;52.510;5.718;2023-08-12T12:19:23;22.30;77.00
81315;DHT22;70781;52.510;5.718;2023-08-12T12:21:53;22.40;76.70
81315;DHT22;70781;52.510;5.718;2023-08-12T12:24:22;22.50;76.50
81315;DHT22;70781;52.510;5.718;2023-08-12T12:26:57;22.50;76.30
81315;DHT22;70781;52.510;5.718;2023-08-12T12:29:26;22.60;76.20
81315;DHT22;70781;52.510;5.718;2023-08-12T12:31:58;22.70;76.00
81315;DHT22;70781;52.510;5.718;2023-08-12T12:34:27;22.80;75.70
81315;DHT22;70781;52.510;5.718;2023-08-12T12:36:57;22.80;75.70
81315;DHT22;70781;52.510;5.718;2023-08-12T12:39:26;22.90;75.50
81315;DHT22;70781;52.510;5.718;2023-08-12T12:41:55;23.00;75.30
81315;DHT22;70781;52.510;5.718;2023-08-12T12:44:26;23.10;75.20
81315;DHT22;70781;52.510;5.718;2023-08-12T12:46:58;23.20;75.20
81315;DHT22;70781;52.510;5.718;2023-08-12T12:49:28;23.20;75.00
81315;DHT22;70781;52.510;5.718;2023-08-12T12:51:57;23.30;74.70
81315;DHT22;70781;52.510;5.718;2023-08-12T12:54:26;23.30;74.50
81315;DHT22;70781;52.510;5.718;2023-08-12T12:56:57;23.30;74.50
81315;DHT22;70781;52.510;5.718;2023-08-12T12:59:26;23.30;74.30
81315;DHT22;70781;52.510;5.718;2023-08-12T13:01:58;23.40;74.10
81315;DHT22;70781;52.510;5.718;2023-08-12T13:04:27;23.50;73.90
81315;DHT22;70781;52.510;5.718;2023-08-12T13:06:56;23.60;73.60
81315;DHT22;70781;52.510;5.718;2023-08-12T13:09:25;23.70;73.40
81315;DHT22;70781;52.510;5.718;2023-08-12T13:11:54;23.80;73.20
81315;DHT22;70781;52.510;5.718;2023-08-12T13:14:24;23.80;73.00
81315;DHT22;70781;52.510;5.718;2023-08-12T13:16:57;23.90;72.80
81315;DHT22;70781;52.510;5.718;2023-08-12T13:19:26;23.90;72.60
81315;DHT22;70781;52.510;5.718;2023-08-12T13:21:56;24.00;72.30
81315;DHT22;70781;52.510;5.718;2023-08-12T13:24:25;24.00;72.10
81315;DHT22;70781;52.510;5.718;2023-08-12T13:26:54;24.00;71.90
81315;DHT22;70781;52.510;5.718;2023-08-12T13:29:23;24.10;71.60
81315;DHT22;70781;52.510;5.718;2023-08-12T13:31:52;24.20;71.40
81315;DHT22;70781;52.510;5.718;2023-08-12T13:34:24;24.20;71.30
81315;DHT22;70781;52.510;5.718;2023-08-12T13:36:54;24.20;71.10
81315;DHT22;70781;52.510;5.718;2023-08-12T13:39:23;24.30;70.80
81315;DHT22;70781;52.510;5.718;2023-08-12T13:41:52;24.40;70.60
81315;DHT22;70781;52.510;5.718;2023-08-12T13:44:22;24.40;70.50
81315;DHT22;70781;52.510;5.718;2023-08-12T13:46:52;24.40;70.40
81315;DHT22;70781;52.510;5.718;2023-08-12T13:49:23;24.40;70.20
81315;DHT22;70781;52.510;5.718;2023-08-12T13:51:52;24.50;70.10
81315;DHT22;70781;52.510;5.718;2023-08-12T13:54:22;24.50;70.00
81315;DHT22;70781;52.510;5.718;2023-08-12T13:56:51;24.60;69.90
81315;DHT22;70781;52.510;5.718;2023-08-12T13:59:20;24.70;69.70
81315;DHT22;70781;52.510;5.718;2023-08-12T14:01:49;24.70;69.40
81315;DHT22;70781;52.510;5.718;2023-08-12T14:04:19;24.70;69.30
81315;DHT22;70781;52.510;5.718;2023-08-12T14:06:50;24.70;69.20
81315;DHT22;70781;52.510;5.718;2023-08-12T14:09:20;24.80;69.00
81315;DHT22;70781;52.510;5.718;2023-08-12T14:11:49;24.90;69.00
81315;DHT22;70781;52.510;5.718;2023-08-12T14:14:18;25.00;68.80
81315;DHT22;70781;52.510;5.718;2023-08-12T14:16:48;25.00;68.60
81315;DHT22;70781;52.510;5.718;2023-08-12T14:19:17;25.00;68.50
81315;DHT22;70781;52.510;5.718;2023-08-12T14:21:46;25.00;68.30
81315;DHT22;70781;52.510;5.718;2023-08-12T14:24:18;25.00;68.10
81315;DHT22;70781;52.510;5.718;2023-08-12T14:26:47;25.10;67.70
81315;DHT22;70781;52.510;5.718;2023-08-12T14:29:17;25.10;67.50
81315;DHT22;70781;52.510;5.718;2023-08-12T14:31:46;25.10;67.40
81315;DHT22;70781;52.510;5.718;2023-08-12T14:34:15;25.00;67.40
81315;DHT22;70781;52.510;5.718;2023-08-12T14:36:44;25.10;67.30
81315;DHT22;70781;52.510;5.718;2023-08-12T14:39:13;25.00;67.30
81315;DHT22;70781;52.510;5.718;2023-08-12T14:41:45;25.20;67.30
81315;DHT22;70781;52.510;5.718;2023-08-12T14:44:14;25.20;67.10
81315;DHT22;70781;52.510;5.718;2023-08-12T14:46:44;25.20;67.00
81315;DHT22;70781;52.510;5.718;2023-08-12T14:49:13;25.20;66.80
81315;DHT22;70781;52.510;5.718;2023-08-12T14:51:42;25.20;66.70
81315;DHT22;70781;52.510;5.718;2023-08-12T14:54:11;25.00;66.60
81315;DHT22;70781;52.510;5.718;2023-08-12T14:56:40;25.00;66.50
81315;DHT22;70781;52.510;5.718;2023-08-12T14:59:13;25.00;66.50
81315;DHT22;70781;52.510;5.718;2023-08-12T15:01:42;24.80;66.50
81315;DHT22;70781;52.510;5.718;2023-08-12T15:04:11;24.80;66.40
81315;DHT22;70781;52.510;5.718;2023-08-12T15:06:40;24.70;66.40
81315;DHT22;70781;52.510;5.718;2023-08-12T15:09:10;24.60;66.40
81315;DHT22;70781;52.510;5.718;2023-08-12T15:11:39;24.60;66.40
81315;DHT22;70781;52.510;5.718;2023-08-12T15:14:08;24.60;66.20
81315;DHT22;70781;52.510;5.718;2023-08-12T15:16:40;24.60;66.10
81315;DHT22;70781;52.510;5.718;2023-08-12T15:19:09;24.60;66.00
81315;DHT22;70781;52.510;5.718;2023-08-12T15:21:39;24.60;66.10
81315;DHT22;70781;52.510;5.718;2023-08-12T15:24:08;24.60;66.00
81315;DHT22;70781;52.510;5.718;2023-08-12T15:26:37;24.70;66.00
81315;DHT22;70781;52.510;5.718;2023-08-12T15:29:06;24.70;65.80
81315;DHT22;70781;52.510;5.718;2023-08-12T15:31:36;24.80;65.50
81315;DHT22;70781;52.510;5.718;2023-08-12T15:34:08;24.80;65.20
81315;DHT22;70781;52.510;5.718;2023-08-12T15:36:37;24.70;65.00
81315;DHT22;70781;52.510;5.718;2023-08-12T15:39:07;24.70;64.90
81315;DHT22;70781;52.510;5.718;2023-08-12T15:41:41;24.60;64.80
81315;DHT22;70781;52.510;5.718;2023-08-12T15:44:11;24.50;64.70
81315;DHT22;70781;52.510;5.718;2023-08-12T15:46:41;24.50;64.80
81315;DHT22;70781;52.510;5.718;2023-08-12T15:49:13;24.50;64.80